sensor_id;sensor_type;location;lat;lon;timestamp;P1;durP1;ratioP1;P2;durP2;ratioP2
75760;SDS011;64373;46.136;8.830;2022-12-07T00:01:44;0.30;;;0.25;;
75760;SDS011;64373;46.136;8.830;2022-12-07T00:04:12;0.50;;;0.30;;
75760;SDS011;64373;46.136;8.830;2022-12-07T00:06:42;0.50;;;0.30;;
75760;SDS011;64373;46.136;8.830;2022-12-07T00:09:15;0.60;;;0.45;;
75760;SDS011;64373;46.136;8.830;2022-12-07T00:11:42;1.83;;;0.30;;
75760;SDS011;64373;46.136;8.830;2022-12-07T00:14:09;0.60;;;0.22;;
75760;SDS011;64373;46.136;8.830;2022-12-07T00:16:37;0.30;;;0.13;;
75760;SDS011;64373;46.136;8.830;2022-12-07T00:19:03;0.40;;;0.30;;
75760;SDS011;64373;46.136;8.830;2022-12-07T00:21:33;0.82;;;0.40;;
75760;SDS011;64373;46.136;8.830;2022-12-07T00:24:00;0.30;;;0.30;;
75760;SDS011;64373;46.136;8.830;2022-12-07T00:26:27;0.20;;;0.10;;
75760;SDS011;64373;46.136;8.830;2022-12-07T00:28:55;0.38;;;0.38;;
75760;SDS011;64373;46.136;8.830;2022-12-07T00:31:26;0.90;;;0.40;;
75760;SDS011;64373;46.136;8.830;2022-12-07T00:33:53;0.68;;;0.47;;
75760;SDS011;64373;46.136;8.830;2022-12-07T00:36:20;0.40;;;0.30;;
75760;SDS011;64373;46.136;8.830;2022-12-07T00:38:47;0.30;;;0.30;;
75760;SDS011;64373;46.136;8.830;2022-12-07T00:41:16;0.65;;;0.50;;
75760;SDS011;64373;46.136;8.830;2022-12-07T00:43:46;0.70;;;0.68;;
75760;SDS011;64373;46.136;8.830;2022-12-07T00:46:13;0.90;;;0.38;;
75760;SDS011;64373;46.136;8.830;2022-12-07T00:48:39;0.55;;;0.30;;
75760;SDS011;64373;46.136;8.830;2022-12-07T00:51:09;0.93;;;0.50;;
75760;SDS011;64373;46.136;8.830;2022-12-07T00:53:36;0.30;;;0.20;;
75760;SDS011;64373;46.136;8.830;2022-12-07T00:56:09;1.02;;;0.40;;
75760;SDS011;64373;46.136;8.830;2022-12-07T00:59:02;0.30;;;0.30;;
75760;SDS011;64373;46.136;8.830;2022-12-07T01:01:29;0.20;;;0.20;;
75760;SDS011;64373;46.136;8.830;2022-12-07T01:03:56;0.60;;;0.50;;
75760;SDS011;64373;46.136;8.830;2022-12-07T01:06:22;0.50;;;0.43;;
75760;SDS011;64373;46.136;8.830;2022-12-07T01:08:49;1.05;;;0.43;;
75760;SDS011;64373;46.136;8.830;2022-12-07T01:11:16;1.58;;;0.45;;
75760;SDS011;64373;46.136;8.830;2022-12-07T01:13:44;0.13;;;0.10;;
75760;SDS011;64373;46.136;8.830;2022-12-07T01:16:10;1.42;;;0.38;;
75760;SDS011;64373;46.136;8.830;2022-12-07T01:18:38;0.25;;;0.20;;
75760;SDS011;64373;46.136;8.830;2022-12-07T01:23:30;0.43;;;0.38;;
75760;SDS011;64373;46.136;8.830;2022-12-07T01:25:56;0.35;;;0.35;;
75760;SDS011;64373;46.136;8.830;2022-12-07T01:28:22;0.60;;;0.60;;
75760;SDS011;64373;46.136;8.830;2022-12-07T01:30:55;1.05;;;0.50;;
75760;SDS011;64373;46.136;8.830;2022-12-07T01:33:26;0.63;;;0.40;;
75760;SDS011;64373;46.136;8.830;2022-12-07T01:36:05;1.08;;;0.40;;
75760;SDS011;64373;46.136;8.830;2022-12-07T01:38:34;0.47;;;0.40;;
75760;SDS011;64373;46.136;8.830;2022-12-07T01:41:00;0.40;;;0.30;;
75760;SDS011;64373;46.136;8.830;2022-12-07T01:43:27;0.90;;;0.50;;
75760;SDS011;64373;46.136;8.830;2022-12-07T01:45:54;0.30;;;0.28;;
75760;SDS011;64373;46.136;8.830;2022-12-07T01:48:24;1.27;;;0.68;;
75760;SDS011;64373;46.136;8.830;2022-12-07T01:50:56;0.77;;;0.60;;
75760;SDS011;64373;46.136;8.830;2022-12-07T01:53:27;0.77;;;0.60;;
75760;SDS011;64373;46.136;8.830;2022-12-07T01:55:54;1.05;;;0.85;;
75760;SDS011;64373;46.136;8.830;2022-12-07T01:58:21;1.02;;;0.50;;
75760;SDS011;64373;46.136;8.830;2022-12-07T02:00:47;2.45;;;0.90;;
75760;SDS011;64373;46.136;8.830;2022-12-07T02:03:27;1.33;;;0.63;;
75760;SDS011;64373;46.136;8.830;2022-12-07T02:05:56;1.73;;;0.85;;
75760;SDS011;64373;46.136;8.830;2022-12-07T02:08:24;1.55;;;0.60;;
75760;SDS011;64373;46.136;8.830;2022-12-07T02:10:49;0.75;;;0.40;;
75760;SDS011;64373;46.136;8.830;2022-12-07T02:13:16;0.77;;;0.60;;
75760;SDS011;64373;46.136;8.830;2022-12-07T02:21:50;0.82;;;0.35;;
75760;SDS011;64373;46.136;8.830;2022-12-07T02:30:05;1.13;;;0.60;;
75760;SDS011;64373;46.136;8.830;2022-12-07T02:35:19;0.93;;;0.47;;
75760;SDS011;64373;46.136;8.830;2022-12-07T02:40:25;0.50;;;0.40;;
75760;SDS011;64373;46.136;8.830;2022-12-07T02:43:00;0.30;;;0.30;;
75760;SDS011;64373;46.136;8.830;2022-12-07T02:45:32;0.40;;;0.30;;
75760;SDS011;64373;46.136;8.830;2022-12-07T02:47:59;0.63;;;0.40;;
75760;SDS011;64373;46.136;8.830;2022-12-07T02:50:25;0.30;;;0.20;;
75760;SDS011;64373;46.136;8.830;2022-12-07T02:52:52;0.73;;;0.40;;
75760;SDS011;64373;46.136;8.830;2022-12-07T02:55:18;0.35;;;0.20;;
75760;SDS011;64373;46.136;8.830;2022-12-07T03:00:46;0.25;;;0.10;;
75760;SDS011;64373;46.136;8.830;2022-12-07T03:03:19;0.10;;;0.10;;
75760;SDS011;64373;46.136;8.830;2022-12-07T03:08:36;0.20;;;0.20;;
75760;SDS011;64373;46.136;8.830;2022-12-07T03:11:09;0.25;;;0.20;;
75760;SDS011;64373;46.136;8.830;2022-12-07T03:16:12;0.30;;;0.30;;
75760;SDS011;64373;46.136;8.830;2022-12-07T03:18:53;0.55;;;0.50;;
75760;SDS011;64373;46.136;8.830;2022-12-07T03:21:23;0.73;;;0.43;;
75760;SDS011;64373;46.136;8.830;2022-12-07T03:23:52;0.88;;;0.43;;
75760;SDS011;64373;46.136;8.830;2022-12-07T03:26:20;0.30;;;0.30;;
75760;SDS011;64373;46.136;8.830;2022-12-07T03:28:50;0.98;;;0.30;;
75760;SDS011;64373;46.136;8.830;2022-12-07T03:33:49;0.30;;;0.20;;
75760;SDS011;64373;46.136;8.830;2022-12-07T03:36:43;0.20;;;0.20;;
75760;SDS011;64373;46.136;8.830;2022-12-07T03:41:48;0.35;;;0.20;;
75760;SDS011;64373;46.136;8.830;2022-12-07T03:44:14;0.40;;;0.30;;
75760;SDS011;64373;46.136;8.830;2022-12-07T03:49:37;0.55;;;0.30;;
75760;SDS011;64373;46.136;8.830;2022-12-07T03:52:35;0.30;;;0.10;;
75760;SDS011;64373;46.136;8.830;2022-12-07T03:58:04;0.90;;;0.30;;
75760;SDS011;64373;46.136;8.830;2022-12-07T04:00:31;0.38;;;0.20;;
75760;SDS011;64373;46.136;8.830;2022-12-07T04:02:57;0.40;;;0.30;;
75760;SDS011;64373;46.136;8.830;2022-12-07T04:05:23;0.52;;;0.20;;
75760;SDS011;64373;46.136;8.830;2022-12-07T04:07:49;0.20;;;0.20;;
75760;SDS011;64373;46.136;8.830;2022-12-07T04:10:14;0.20;;;0.15;;
75760;SDS011;64373;46.136;8.830;2022-12-07T04:12:40;0.15;;;0.10;;
75760;SDS011;64373;46.136;8.830;2022-12-07T04:15:06;0.68;;;0.28;;
75760;SDS011;64373;46.136;8.830;2022-12-07T04:17:32;0.70;;;0.30;;
75760;SDS011;64373;46.136;8.830;2022-12-07T04:19:57;0.35;;;0.20;;
75760;SDS011;64373;46.136;8.830;2022-12-07T04:22:23;0.20;;;0.10;;
75760;SDS011;64373;46.136;8.830;2022-12-07T04:24:48;0.30;;;0.25;;
75760;SDS011;64373;46.136;8.830;2022-12-07T04:27:14;0.60;;;0.40;;
75760;SDS011;64373;46.136;8.830;2022-12-07T04:29:40;0.30;;;0.20;;
75760;SDS011;64373;46.136;8.830;2022-12-07T04:32:05;0.40;;;0.10;;
75760;SDS011;64373;46.136;8.830;2022-12-07T04:34:31;0.47;;;0.30;;
75760;SDS011;64373;46.136;8.830;2022-12-07T04:36:56;0.10;;;0.10;;
75760;SDS011;64373;46.136;8.830;2022-12-07T04:39:23;0.90;;;0.40;;
75760;SDS011;64373;46.136;8.830;2022-12-07T04:41:54;0.40;;;0.30;;
75760;SDS011;64373;46.136;8.830;2022-12-07T04:44:20;0.50;;;0.40;;
75760;SDS011;64373;46.136;8.830;2022-12-07T04:46:46;0.60;;;0.20;;
75760;SDS011;64373;46.136;8.830;2022-12-07T04:49:13;0.70;;;0.50;;
75760;SDS011;64373;46.136;8.830;2022-12-07T04:51:39;0.10;;;0.10;;
75760;SDS011;64373;46.136;8.830;2022-12-07T04:54:04;0.20;;;0.20;;
75760;SDS011;64373;46.136;8.830;2022-12-07T04:56:30;0.10;;;0.10;;
75760;SDS011;64373;46.136;8.830;2022-12-07T04:58:55;0.05;;;0.00;;
75760;SDS011;64373;46.136;8.830;2022-12-07T05:01:21;0.10;;;0.10;;
75760;SDS011;64373;46.136;8.830;2022-12-07T05:03:48;0.47;;;0.28;;
75760;SDS011;64373;46.136;8.830;2022-12-07T05:06:14;0.20;;;0.10;;
75760;SDS011;64373;46.136;8.830;2022-12-07T05:08:40;0.40;;;0.13;;
75760;SDS011;64373;46.136;8.830;2022-12-07T05:11:06;0.40;;;0.35;;
75760;SDS011;64373;46.136;8.830;2022-12-07T05:13:32;0.38;;;0.20;;
75760;SDS011;64373;46.136;8.830;2022-12-07T05:15:58;0.38;;;0.22;;
75760;SDS011;64373;46.136;8.830;2022-12-07T05:18:24;0.60;;;0.30;;
75760;SDS011;64373;46.136;8.830;2022-12-07T05:20:50;0.00;;;0.00;;
75760;SDS011;64373;46.136;8.830;2022-12-07T05:23:16;0.17;;;0.10;;
75760;SDS011;64373;46.136;8.830;2022-12-07T05:25:43;0.40;;;0.30;;
75760;SDS011;64373;46.136;8.830;2022-12-07T05:28:08;0.75;;;0.30;;
75760;SDS011;64373;46.136;8.830;2022-12-07T05:30:34;1.50;;;0.17;;
75760;SDS011;64373;46.136;8.830;2022-12-07T05:33:00;0.30;;;0.20;;
75760;SDS011;64373;46.136;8.830;2022-12-07T05:35:25;0.20;;;0.20;;
75760;SDS011;64373;46.136;8.830;2022-12-07T05:37:51;0.38;;;0.30;;
75760;SDS011;64373;46.136;8.830;2022-12-07T05:40:16;0.13;;;0.13;;
75760;SDS011;64373;46.136;8.830;2022-12-07T05:42:44;0.52;;;0.28;;
75760;SDS011;64373;46.136;8.830;2022-12-07T05:45:09;0.20;;;0.20;;
75760;SDS011;64373;46.136;8.830;2022-12-07T05:47:35;0.35;;;0.20;;
75760;SDS011;64373;46.136;8.830;2022-12-07T05:50:01;0.60;;;0.35;;
75760;SDS011;64373;46.136;8.830;2022-12-07T05:52:27;0.20;;;0.20;;
75760;SDS011;64373;46.136;8.830;2022-12-07T05:54:52;0.45;;;0.30;;
75760;SDS011;64373;46.136;8.830;2022-12-07T05:57:18;0.20;;;0.20;;
75760;SDS011;64373;46.136;8.830;2022-12-07T05:59:44;0.30;;;0.20;;
75760;SDS011;64373;46.136;8.830;2022-12-07T06:02:10;0.20;;;0.20;;
75760;SDS011;64373;46.136;8.830;2022-12-07T06:04:38;0.88;;;0.30;;
75760;SDS011;64373;46.136;8.830;2022-12-07T06:07:05;0.32;;;0.20;;
75760;SDS011;64373;46.136;8.830;2022-12-07T06:09:31;0.45;;;0.30;;
75760;SDS011;64373;46.136;8.830;2022-12-07T06:11:57;0.17;;;0.10;;
75760;SDS011;64373;46.136;8.830;2022-12-07T06:14:42;0.20;;;0.15;;
75760;SDS011;64373;46.136;8.830;2022-12-07T06:17:07;0.10;;;0.10;;
75760;SDS011;64373;46.136;8.830;2022-12-07T06:19:33;0.38;;;0.28;;
75760;SDS011;64373;46.136;8.830;2022-12-07T06:22:00;1.15;;;0.30;;
75760;SDS011;64373;46.136;8.830;2022-12-07T06:24:26;0.70;;;0.30;;
75760;SDS011;64373;46.136;8.830;2022-12-07T06:26:52;0.22;;;0.10;;
75760;SDS011;64373;46.136;8.830;2022-12-07T06:29:17;0.10;;;0.00;;
75760;SDS011;64373;46.136;8.830;2022-12-07T06:31:44;0.22;;;0.10;;
75760;SDS011;64373;46.136;8.830;2022-12-07T06:34:11;0.45;;;0.10;;
75760;SDS011;64373;46.136;8.830;2022-12-07T06:36:38;0.45;;;0.20;;
75760;SDS011;64373;46.136;8.830;2022-12-07T06:39:04;0.15;;;0.15;;
75760;SDS011;64373;46.136;8.830;2022-12-07T06:41:30;0.22;;;0.13;;
75760;SDS011;64373;46.136;8.830;2022-12-07T06:43:56;0.30;;;0.20;;
75760;SDS011;64373;46.136;8.830;2022-12-07T06:46:22;0.43;;;0.35;;
75760;SDS011;64373;46.136;8.830;2022-12-07T06:48:48;0.25;;;0.13;;
75760;SDS011;64373;46.136;8.830;2022-12-07T06:51:13;0.43;;;0.20;;
75760;SDS011;64373;46.136;8.830;2022-12-07T06:53:39;0.70;;;0.20;;
75760;SDS011;64373;46.136;8.830;2022-12-07T06:56:04;0.30;;;0.20;;
75760;SDS011;64373;46.136;8.830;2022-12-07T06:58:30;0.20;;;0.13;;
75760;SDS011;64373;46.136;8.830;2022-12-07T07:00:56;0.20;;;0.20;;
75760;SDS011;64373;46.136;8.830;2022-12-07T07:03:22;1.05;;;0.22;;
75760;SDS011;64373;46.136;8.830;2022-12-07T07:05:48;0.30;;;0.20;;
75760;SDS011;64373;46.136;8.830;2022-12-07T07:08:14;0.45;;;0.20;;
75760;SDS011;64373;46.136;8.830;2022-12-07T07:10:40;0.22;;;0.20;;
75760;SDS011;64373;46.136;8.830;2022-12-07T07:13:06;0.28;;;0.17;;
75760;SDS011;64373;46.136;8.830;2022-12-07T07:15:32;0.20;;;0.10;;
75760;SDS011;64373;46.136;8.830;2022-12-07T07:17:59;0.50;;;0.32;;
75760;SDS011;64373;46.136;8.830;2022-12-07T07:20:25;0.17;;;0.17;;
75760;SDS011;64373;46.136;8.830;2022-12-07T07:22:50;0.22;;;0.20;;
75760;SDS011;64373;46.136;8.830;2022-12-07T07:25:19;0.63;;;0.20;;
75760;SDS011;64373;46.136;8.830;2022-12-07T07:27:44;0.00;;;0.00;;
75760;SDS011;64373;46.136;8.830;2022-12-07T07:30:10;0.10;;;0.10;;
75760;SDS011;64373;46.136;8.830;2022-12-07T07:32:36;0.20;;;0.10;;
75760;SDS011;64373;46.136;8.830;2022-12-07T07:35:01;0.00;;;0.00;;
75760;SDS011;64373;46.136;8.830;2022-12-07T07:37:27;0.38;;;0.15;;
75760;SDS011;64373;46.136;8.830;2022-12-07T07:39:53;0.35;;;0.13;;
75760;SDS011;64373;46.136;8.830;2022-12-07T07:42:19;0.30;;;0.28;;
75760;SDS011;64373;46.136;8.830;2022-12-07T07:44:44;0.10;;;0.10;;
75760;SDS011;64373;46.136;8.830;2022-12-07T07:47:10;0.20;;;0.00;;
75760;SDS011;64373;46.136;8.830;2022-12-07T07:49:35;0.10;;;0.10;;
75760;SDS011;64373;46.136;8.830;2022-12-07T07:52:01;0.10;;;0.10;;
75760;SDS011;64373;46.136;8.830;2022-12-07T07:54:27;0.30;;;0.30;;
75760;SDS011;64373;46.136;8.830;2022-12-07T07:56:52;0.30;;;0.30;;
75760;SDS011;64373;46.136;8.830;2022-12-07T07:59:18;0.30;;;0.30;;
75760;SDS011;64373;46.136;8.830;2022-12-07T08:01:44;0.17;;;0.17;;
75760;SDS011;64373;46.136;8.830;2022-12-07T08:04:09;0.03;;;0.03;;
75760;SDS011;64373;46.136;8.830;2022-12-07T08:06:35;0.03;;;0.00;;
75760;SDS011;64373;46.136;8.830;2022-12-07T08:09:00;0.35;;;0.10;;
75760;SDS011;64373;46.136;8.830;2022-12-07T08:11:26;0.00;;;0.00;;
75760;SDS011;64373;46.136;8.830;2022-12-07T08:13:52;0.20;;;0.10;;
75760;SDS011;64373;46.136;8.830;2022-12-07T08:16:17;0.73;;;0.10;;
75760;SDS011;64373;46.136;8.830;2022-12-07T08:18:43;0.32;;;0.10;;
75760;SDS011;64373;46.136;8.830;2022-12-07T08:21:09;0.82;;;0.30;;
75760;SDS011;64373;46.136;8.830;2022-12-07T08:23:37;0.20;;;0.20;;
75760;SDS011;64373;46.136;8.830;2022-12-07T08:26:07;0.28;;;0.17;;
75760;SDS011;64373;46.136;8.830;2022-12-07T08:28:34;2.17;;;1.00;;
75760;SDS011;64373;46.136;8.830;2022-12-07T08:31:10;2.00;;;1.40;;
75760;SDS011;64373;46.136;8.830;2022-12-07T08:33:38;2.00;;;1.30;;
75760;SDS011;64373;46.136;8.830;2022-12-07T08:36:05;0.90;;;0.65;;
75760;SDS011;64373;46.136;8.830;2022-12-07T08:38:35;0.98;;;0.57;;
75760;SDS011;64373;46.136;8.830;2022-12-07T08:41:01;0.77;;;0.50;;
75760;SDS011;64373;46.136;8.830;2022-12-07T08:43:27;0.35;;;0.32;;
75760;SDS011;64373;46.136;8.830;2022-12-07T08:46:01;0.50;;;0.40;;
75760;SDS011;64373;46.136;8.830;2022-12-07T08:48:28;0.70;;;0.50;;
75760;SDS011;64373;46.136;8.830;2022-12-07T08:50:54;0.50;;;0.40;;
75760;SDS011;64373;46.136;8.830;2022-12-07T08:53:20;0.77;;;0.32;;
75760;SDS011;64373;46.136;8.830;2022-12-07T08:55:46;0.90;;;0.50;;
75760;SDS011;64373;46.136;8.830;2022-12-07T08:58:12;1.50;;;1.00;;
75760;SDS011;64373;46.136;8.830;2022-12-07T09:00:37;0.60;;;0.50;;
75760;SDS011;64373;46.136;8.830;2022-12-07T09:03:03;0.45;;;0.38;;
75760;SDS011;64373;46.136;8.830;2022-12-07T09:05:28;0.70;;;0.50;;
75760;SDS011;64373;46.136;8.830;2022-12-07T09:07:55;0.68;;;0.65;;
75760;SDS011;64373;46.136;8.830;2022-12-07T09:10:23;2.00;;;1.38;;
75760;SDS011;64373;46.136;8.830;2022-12-07T09:12:48;1.20;;;0.90;;
75760;SDS011;64373;46.136;8.830;2022-12-07T09:15:14;0.80;;;0.50;;
75760;SDS011;64373;46.136;8.830;2022-12-07T09:17:40;1.13;;;0.70;;
75760;SDS011;64373;46.136;8.830;2022-12-07T09:20:05;1.35;;;1.10;;
75760;SDS011;64373;46.136;8.830;2022-12-07T09:22:31;0.80;;;0.40;;
75760;SDS011;64373;46.136;8.830;2022-12-07T09:24:57;0.95;;;0.50;;
75760;SDS011;64373;46.136;8.830;2022-12-07T09:27:23;0.80;;;0.52;;
75760;SDS011;64373;46.136;8.830;2022-12-07T09:29:49;1.00;;;0.90;;
75760;SDS011;64373;46.136;8.830;2022-12-07T09:32:15;0.45;;;0.30;;
75760;SDS011;64373;46.136;8.830;2022-12-07T09:34:40;1.00;;;0.70;;
75760;SDS011;64373;46.136;8.830;2022-12-07T09:37:06;1.50;;;0.70;;
75760;SDS011;64373;46.136;8.830;2022-12-07T09:39:32;0.60;;;0.50;;
75760;SDS011;64373;46.136;8.830;2022-12-07T09:41:58;0.52;;;0.47;;
75760;SDS011;64373;46.136;8.830;2022-12-07T09:44:24;0.28;;;0.28;;
75760;SDS011;64373;46.136;8.830;2022-12-07T09:46:51;0.30;;;0.30;;
75760;SDS011;64373;46.136;8.830;2022-12-07T09:49:19;0.17;;;0.10;;
75760;SDS011;64373;46.136;8.830;2022-12-07T09:52:02;0.20;;;0.20;;
75760;SDS011;64373;46.136;8.830;2022-12-07T09:54:49;0.30;;;0.20;;
75760;SDS011;64373;46.136;8.830;2022-12-07T09:57:15;0.40;;;0.40;;
75760;SDS011;64373;46.136;8.830;2022-12-07T09:59:41;0.30;;;0.30;;
75760;SDS011;64373;46.136;8.830;2022-12-07T10:02:21;1.05;;;0.80;;
75760;SDS011;64373;46.136;8.830;2022-12-07T10:04:50;0.70;;;0.60;;
75760;SDS011;64373;46.136;8.830;2022-12-07T10:07:15;0.57;;;0.57;;
75760;SDS011;64373;46.136;8.830;2022-12-07T10:09:41;0.88;;;0.80;;
75760;SDS011;64373;46.136;8.830;2022-12-07T10:12:10;1.52;;;1.20;;
75760;SDS011;64373;46.136;8.830;2022-12-07T10:14:37;0.77;;;0.70;;
75760;SDS011;64373;46.136;8.830;2022-12-07T10:22:37;0.63;;;0.50;;
75760;SDS011;64373;46.136;8.830;2022-12-07T10:25:17;0.30;;;0.20;;
75760;SDS011;64373;46.136;8.830;2022-12-07T10:27:44;0.40;;;0.20;;
75760;SDS011;64373;46.136;8.830;2022-12-07T10:30:22;0.90;;;0.30;;
75760;SDS011;64373;46.136;8.830;2022-12-07T10:32:48;0.70;;;0.63;;
75760;SDS011;64373;46.136;8.830;2022-12-07T10:35:21;0.30;;;0.30;;
75760;SDS011;64373;46.136;8.830;2022-12-07T10:37:49;0.20;;;0.20;;
75760;SDS011;64373;46.136;8.830;2022-12-07T10:43:08;0.10;;;0.10;;
75760;SDS011;64373;46.136;8.830;2022-12-07T10:46:07;0.25;;;0.20;;
75760;SDS011;64373;46.136;8.830;2022-12-07T10:48:37;0.50;;;0.50;;
75760;SDS011;64373;46.136;8.830;2022-12-07T11:07:46;1.75;;;0.70;;
75760;SDS011;64373;46.136;8.830;2022-12-07T11:10:26;0.13;;;0.10;;
75760;SDS011;64373;46.136;8.830;2022-12-07T11:13:27;0.40;;;0.20;;
75760;SDS011;64373;46.136;8.830;2022-12-07T11:21:58;0.10;;;0.10;;
75760;SDS011;64373;46.136;8.830;2022-12-07T11:24:40;0.20;;;0.13;;
75760;SDS011;64373;46.136;8.830;2022-12-07T11:35:19;0.25;;;0.10;;
75760;SDS011;64373;46.136;8.830;2022-12-07T11:38:13;0.28;;;0.10;;
75760;SDS011;64373;46.136;8.830;2022-12-07T11:40:41;0.75;;;0.00;;
75760;SDS011;64373;46.136;8.830;2022-12-07T11:48:31;0.00;;;0.00;;
75760;SDS011;64373;46.136;8.830;2022-12-07T11:53:39;0.05;;;0.05;;
75760;SDS011;64373;46.136;8.830;2022-12-07T12:03:54;0.20;;;0.10;;
75760;SDS011;64373;46.136;8.830;2022-12-07T12:06:22;0.10;;;0.10;;
75760;SDS011;64373;46.136;8.830;2022-12-07T12:11:24;0.00;;;0.00;;
75760;SDS011;64373;46.136;8.830;2022-12-07T12:14:08;0.10;;;0.03;;
75760;SDS011;64373;46.136;8.830;2022-12-07T12:22:12;0.00;;;0.00;;
75760;SDS011;64373;46.136;8.830;2022-12-07T12:24:41;0.13;;;0.10;;
75760;SDS011;64373;46.136;8.830;2022-12-07T12:27:09;0.10;;;0.10;;
75760;SDS011;64373;46.136;8.830;2022-12-07T12:29:41;0.13;;;0.10;;
75760;SDS011;64373;46.136;8.830;2022-12-07T12:37:38;0.20;;;0.20;;
75760;SDS011;64373;46.136;8.830;2022-12-07T12:42:46;0.00;;;0.00;;
75760;SDS011;64373;46.136;8.830;2022-12-07T12:45:19;0.10;;;0.10;;
75760;SDS011;64373;46.136;8.830;2022-12-07T12:50:26;0.15;;;0.10;;
75760;SDS011;64373;46.136;8.830;2022-12-07T12:58:40;0.65;;;0.40;;
75760;SDS011;64373;46.136;8.830;2022-12-07T13:03:56;0.75;;;0.38;;
75760;SDS011;64373;46.136;8.830;2022-12-07T13:08:54;1.00;;;0.80;;
75760;SDS011;64373;46.136;8.830;2022-12-07T13:15:30;0.82;;;0.55;;
75760;SDS011;64373;46.136;8.830;2022-12-07T13:19:58;0.77;;;0.43;;
75760;SDS011;64373;46.136;8.830;2022-12-07T13:28:07;0.43;;;0.30;;
75760;SDS011;64373;46.136;8.830;2022-12-07T13:30:53;0.43;;;0.20;;
75760;SDS011;64373;46.136;8.830;2022-12-07T13:33:23;0.15;;;0.15;;
75760;SDS011;64373;46.136;8.830;2022-12-07T13:35:49;0.13;;;0.10;;
75760;SDS011;64373;46.136;8.830;2022-12-07T13:38:27;0.35;;;0.15;;
75760;SDS011;64373;46.136;8.830;2022-12-07T13:41:17;1.00;;;0.20;;
75760;SDS011;64373;46.136;8.830;2022-12-07T13:46:15;0.38;;;0.30;;
75760;SDS011;64373;46.136;8.830;2022-12-07T13:48:45;0.40;;;0.30;;
75760;SDS011;64373;46.136;8.830;2022-12-07T13:51:22;0.30;;;0.30;;
75760;SDS011;64373;46.136;8.830;2022-12-07T13:53:51;0.68;;;0.30;;
75760;SDS011;64373;46.136;8.830;2022-12-07T13:56:25;0.30;;;0.30;;
75760;SDS011;64373;46.136;8.830;2022-12-07T13:58:54;0.30;;;0.20;;
75760;SDS011;64373;46.136;8.830;2022-12-07T14:01:20;0.20;;;0.10;;
75760;SDS011;64373;46.136;8.830;2022-12-07T14:03:45;0.20;;;0.10;;
75760;SDS011;64373;46.136;8.830;2022-12-07T14:08:37;0.30;;;0.20;;
75760;SDS011;64373;46.136;8.830;2022-12-07T14:11:02;0.20;;;0.10;;
75760;SDS011;64373;46.136;8.830;2022-12-07T14:13:44;0.52;;;0.10;;
75760;SDS011;64373;46.136;8.830;2022-12-07T14:18:57;0.40;;;0.30;;
75760;SDS011;64373;46.136;8.830;2022-12-07T14:21:24;0.10;;;0.10;;
75760;SDS011;64373;46.136;8.830;2022-12-07T14:26:46;0.40;;;0.25;;
75760;SDS011;64373;46.136;8.830;2022-12-07T14:29:20;0.20;;;0.20;;
75760;SDS011;64373;46.136;8.830;2022-12-07T14:31:54;0.52;;;0.40;;
75760;SDS011;64373;46.136;8.830;2022-12-07T14:34:21;0.60;;;0.40;;
75760;SDS011;64373;46.136;8.830;2022-12-07T14:36:47;2.28;;;0.82;;
75760;SDS011;64373;46.136;8.830;2022-12-07T14:39:12;1.58;;;0.90;;
75760;SDS011;64373;46.136;8.830;2022-12-07T14:41:38;1.80;;;0.63;;
75760;SDS011;64373;46.136;8.830;2022-12-07T14:44:16;0.35;;;0.30;;
75760;SDS011;64373;46.136;8.830;2022-12-07T14:46:43;0.60;;;0.35;;
75760;SDS011;64373;46.136;8.830;2022-12-07T14:49:08;0.50;;;0.38;;
75760;SDS011;64373;46.136;8.830;2022-12-07T14:51:34;0.68;;;0.30;;
75760;SDS011;64373;46.136;8.830;2022-12-07T14:54:01;0.30;;;0.20;;
75760;SDS011;64373;46.136;8.830;2022-12-07T14:56:28;0.30;;;0.20;;
75760;SDS011;64373;46.136;8.830;2022-12-07T14:58:53;0.47;;;0.45;;
75760;SDS011;64373;46.136;8.830;2022-12-07T15:01:19;0.50;;;0.20;;
75760;SDS011;64373;46.136;8.830;2022-12-07T15:03:44;0.22;;;0.17;;
75760;SDS011;64373;46.136;8.830;2022-12-07T15:06:12;0.20;;;0.10;;
75760;SDS011;64373;46.136;8.830;2022-12-07T15:08:39;0.70;;;0.20;;
75760;SDS011;64373;46.136;8.830;2022-12-07T15:11:04;0.52;;;0.30;;
75760;SDS011;64373;46.136;8.830;2022-12-07T15:13:30;0.52;;;0.20;;
75760;SDS011;64373;46.136;8.830;2022-12-07T15:16:16;0.63;;;0.40;;
75760;SDS011;64373;46.136;8.830;2022-12-07T15:18:44;2.60;;;1.77;;
75760;SDS011;64373;46.136;8.830;2022-12-07T15:21:12;3.20;;;1.50;;
75760;SDS011;64373;46.136;8.830;2022-12-07T15:23:39;1.70;;;1.10;;
75760;SDS011;64373;46.136;8.830;2022-12-07T15:26:05;1.10;;;0.60;;
75760;SDS011;64373;46.136;8.830;2022-12-07T15:28:31;1.77;;;0.60;;
75760;SDS011;64373;46.136;8.830;2022-12-07T15:30:56;0.63;;;0.60;;
75760;SDS011;64373;46.136;8.830;2022-12-07T15:33:22;1.55;;;1.00;;
75760;SDS011;64373;46.136;8.830;2022-12-07T15:35:47;1.08;;;0.88;;
75760;SDS011;64373;46.136;8.830;2022-12-07T15:38:13;0.70;;;0.47;;
75760;SDS011;64373;46.136;8.830;2022-12-07T15:40:38;0.88;;;0.50;;
75760;SDS011;64373;46.136;8.830;2022-12-07T15:43:04;0.60;;;0.40;;
75760;SDS011;64373;46.136;8.830;2022-12-07T15:45:30;0.40;;;0.30;;
75760;SDS011;64373;46.136;8.830;2022-12-07T15:47:55;0.68;;;0.40;;
75760;SDS011;64373;46.136;8.830;2022-12-07T15:50:21;0.30;;;0.22;;
75760;SDS011;64373;46.136;8.830;2022-12-07T15:52:47;0.50;;;0.40;;
75760;SDS011;64373;46.136;8.830;2022-12-07T15:55:13;1.23;;;1.13;;
75760;SDS011;64373;46.136;8.830;2022-12-07T15:57:39;0.80;;;0.60;;
75760;SDS011;64373;46.136;8.830;2022-12-07T16:00:05;1.17;;;1.08;;
75760;SDS011;64373;46.136;8.830;2022-12-07T16:02:33;0.80;;;0.80;;
75760;SDS011;64373;46.136;8.830;2022-12-07T16:04:59;1.05;;;0.73;;
75760;SDS011;64373;46.136;8.830;2022-12-07T16:07:24;0.90;;;0.80;;
75760;SDS011;64373;46.136;8.830;2022-12-07T16:09:50;1.98;;;1.42;;
75760;SDS011;64373;46.136;8.830;2022-12-07T16:12:15;3.33;;;2.80;;
75760;SDS011;64373;46.136;8.830;2022-12-07T16:14:41;1.40;;;1.30;;
75760;SDS011;64373;46.136;8.830;2022-12-07T16:17:07;2.65;;;2.38;;
75760;SDS011;64373;46.136;8.830;2022-12-07T16:19:34;2.55;;;2.03;;
75760;SDS011;64373;46.136;8.830;2022-12-07T16:22:00;1.27;;;1.17;;
75760;SDS011;64373;46.136;8.830;2022-12-07T16:24:26;1.38;;;0.90;;
75760;SDS011;64373;46.136;8.830;2022-12-07T16:26:51;2.10;;;1.60;;
75760;SDS011;64373;46.136;8.830;2022-12-07T16:29:18;4.35;;;3.25;;
75760;SDS011;64373;46.136;8.830;2022-12-07T16:31:45;4.18;;;3.33;;
75760;SDS011;64373;46.136;8.830;2022-12-07T16:34:10;2.25;;;1.65;;
75760;SDS011;64373;46.136;8.830;2022-12-07T16:36:36;1.83;;;1.20;;
75760;SDS011;64373;46.136;8.830;2022-12-07T16:39:02;2.97;;;2.10;;
75760;SDS011;64373;46.136;8.830;2022-12-07T16:41:28;1.75;;;1.30;;
75760;SDS011;64373;46.136;8.830;2022-12-07T16:43:54;1.60;;;0.90;;
75760;SDS011;64373;46.136;8.830;2022-12-07T16:46:19;1.67;;;0.80;;
75760;SDS011;64373;46.136;8.830;2022-12-07T16:48:45;0.63;;;0.57;;
75760;SDS011;64373;46.136;8.830;2022-12-07T16:51:11;1.50;;;1.30;;
75760;SDS011;64373;46.136;8.830;2022-12-07T16:53:39;0.77;;;0.63;;
75760;SDS011;64373;46.136;8.830;2022-12-07T16:56:12;0.90;;;0.65;;
75760;SDS011;64373;46.136;8.830;2022-12-07T16:58:39;0.50;;;0.40;;
75760;SDS011;64373;46.136;8.830;2022-12-07T17:01:09;0.77;;;0.60;;
75760;SDS011;64373;46.136;8.830;2022-12-07T17:03:38;1.60;;;0.40;;
75760;SDS011;64373;46.136;8.830;2022-12-07T17:06:10;0.65;;;0.38;;
75760;SDS011;64373;46.136;8.830;2022-12-07T17:08:38;0.82;;;0.52;;
75760;SDS011;64373;46.136;8.830;2022-12-07T17:11:08;0.52;;;0.50;;
75760;SDS011;64373;46.136;8.830;2022-12-07T17:13:38;0.50;;;0.50;;
75760;SDS011;64373;46.136;8.830;2022-12-07T17:16:23;0.60;;;0.40;;
75760;SDS011;64373;46.136;8.830;2022-12-07T17:18:48;0.93;;;0.50;;
75760;SDS011;64373;46.136;8.830;2022-12-07T17:21:14;0.70;;;0.45;;